Main page
METAR-TAF:

METAR-TAF

Airports :

Exeter, England

Exeter Airport

latitude: 50-44N, longitude: 003-25W, elevation: 30 m

Current weather observation

The report was made 23 minutes ago, at 19:50 UTC
Wind 2 kt from variable directions
Temperature 2°C
Humidity 93%
Pressure 1033 hPa
Visibility 10 km or more
no clouds below 1500 m and no cumulonimbus

METAR: EGTE 181950Z VRB02KT CAVOK 02/01 Q1033

Time: 20:13 (20:13 UTC)

Forecast

The report was made 3 hours and 17 minutes ago, at 16:56 UTC
Forecast valid from 18 at 18 UTC to 19 at 02 UTC
Wind 5 kt from the Northwest
Visibility 10 km or more
Few clouds at a height of 4500 ft
Becoming
from 18 at 18 UTC to 18 at 21 UTC
Visibility: 3000 m
mist
Probability 30%
from 18 at 21 UTC to 19 at 02 UTC
Visibility: 0300 m
fog

TAF: EGTE 181656Z 1818/1902 32005KT 9999 FEW045 BECMG 1818/1821 3000 BR PROB30 1821/1902 0300 FG VV///

Weather observations and forecasts of more than 4000 airports (METAR and TAF reports).

The available stations are represented by yellow and red dots on the map.

Hover mouse over dot to see the name of the station.

Then click to see weather observations and forecasts.

To change the map : click on the green buttons with a black cross to zoom in, on the green button with a dash to zoom out, or on the green arrows for adjacent maps.


METAR-TAF: